sensor_id;sensor_type;location;lat;lon;timestamp;temperature;humidity
34135;DHT22;20410;55.578;12.968;2023-09-19T00:01:42;18.90;99.90
34135;DHT22;20410;55.578;12.968;2023-09-19T00:04:13;18.90;99.90
34135;DHT22;20410;55.578;12.968;2023-09-19T00:06:40;18.90;99.90
34135;DHT22;20410;55.578;12.968;2023-09-19T00:09:05;18.90;99.90
34135;DHT22;20410;55.578;12.968;2023-09-19T00:11:36;18.90;99.90
34135;DHT22;20410;55.578;12.968;2023-09-19T00:14:02;18.90;99.90
34135;DHT22;20410;55.578;12.968;2023-09-19T00:16:28;18.90;99.90
34135;DHT22;20410;55.578;12.968;2023-09-19T00:18:53;18.90;99.90
34135;DHT22;20410;55.578;12.968;2023-09-19T00:21:19;18.90;99.90
34135;DHT22;20410;55.578;12.968;2023-09-19T00:23:45;18.90;99.90
34135;DHT22;20410;55.578;12.968;2023-09-19T00:26:10;18.90;99.90
34135;DHT22;20410;55.578;12.968;2023-09-19T00:28:36;18.90;99.90
34135;DHT22;20410;55.578;12.968;2023-09-19T00:31:02;18.90;99.90
34135;DHT22;20410;55.578;12.968;2023-09-19T00:33:28;18.90;99.90
34135;DHT22;20410;55.578;12.968;2023-09-19T00:35:56;18.90;99.90
34135;DHT22;20410;55.578;12.968;2023-09-19T00:38:23;18.90;99.90
34135;DHT22;20410;55.578;12.968;2023-09-19T00:40:53;18.90;99.90
34135;DHT22;20410;55.578;12.968;2023-09-19T00:43:19;18.90;99.90
34135;DHT22;20410;55.578;12.968;2023-09-19T00:45:47;18.90;99.90
34135;DHT22;20410;55.578;12.968;2023-09-19T00:48:17;18.90;99.90
34135;DHT22;20410;55.578;12.968;2023-09-19T00:50:44;18.90;99.90
34135;DHT22;20410;55.578;12.968;2023-09-19T00:53:14;18.90;99.90
34135;DHT22;20410;55.578;12.968;2023-09-19T00:55:41;19.00;99.90
34135;DHT22;20410;55.578;12.968;2023-09-19T00:58:08;18.90;99.90
34135;DHT22;20410;55.578;12.968;2023-09-19T01:00:35;18.90;99.90
34135;DHT22;20410;55.578;12.968;2023-09-19T01:03:01;18.90;99.90
34135;DHT22;20410;55.578;12.968;2023-09-19T01:05:27;19.00;99.90
34135;DHT22;20410;55.578;12.968;2023-09-19T01:07:53;19.00;99.90
34135;DHT22;20410;55.578;12.968;2023-09-19T01:10:20;19.00;99.90
34135;DHT22;20410;55.578;12.968;2023-09-19T01:12:54;18.90;99.90
34135;DHT22;20410;55.578;12.968;2023-09-19T01:32:17;19.00;97.70
34135;DHT22;20410;55.578;12.968;2023-09-19T01:37:14;18.90;90.30
34135;DHT22;20410;55.578;12.968;2023-09-19T01:39:43;18.90;88.70
34135;DHT22;20410;55.578;12.968;2023-09-19T01:42:41;18.90;77.80
34135;DHT22;20410;55.578;12.968;2023-09-19T01:47:59;18.90;63.90
34135;DHT22;20410;55.578;12.968;2023-09-19T01:50:38;18.90;62.00
34135;DHT22;20410;55.578;12.968;2023-09-19T01:53:13;18.90;58.60
34135;DHT22;20410;55.578;12.968;2023-09-19T01:55:46;18.90;51.40
34135;DHT22;20410;55.578;12.968;2023-09-19T01:58:25;18.90;52.90
34135;DHT22;20410;55.578;12.968;2023-09-19T02:00:54;18.80;51.40
34135;DHT22;20410;55.578;12.968;2023-09-19T02:03:21;18.80;50.10
34135;DHT22;20410;55.578;12.968;2023-09-19T02:05:51;18.80;48.90
34135;DHT22;20410;55.578;12.968;2023-09-19T02:08:20;18.80;22.50
34135;DHT22;20410;55.578;12.968;2023-09-19T02:10:46;18.70;1.00
34135;DHT22;20410;55.578;12.968;2023-09-19T02:13:19;18.70;1.00
34135;DHT22;20410;55.578;12.968;2023-09-19T02:15:45;18.60;1.00
34135;DHT22;20410;55.578;12.968;2023-09-19T02:18:14;18.60;1.00
34135;DHT22;20410;55.578;12.968;2023-09-19T02:20:40;18.50;1.00
34135;DHT22;20410;55.578;12.968;2023-09-19T02:23:06;18.50;1.00
34135;DHT22;20410;55.578;12.968;2023-09-19T02:25:33;18.40;1.00
34135;DHT22;20410;55.578;12.968;2023-09-19T02:28:00;18.40;1.00
34135;DHT22;20410;55.578;12.968;2023-09-19T02:30:28;18.30;1.00
34135;DHT22;20410;55.578;12.968;2023-09-19T02:32:54;18.30;1.00
34135;DHT22;20410;55.578;12.968;2023-09-19T02:35:20;18.30;1.00
34135;DHT22;20410;55.578;12.968;2023-09-19T02:37:46;18.30;1.00
34135;DHT22;20410;55.578;12.968;2023-09-19T02:40:12;18.30;1.00
34135;DHT22;20410;55.578;12.968;2023-09-19T02:42:53;18.30;1.00
34135;DHT22;20410;55.578;12.968;2023-09-19T02:45:20;18.30;1.00
34135;DHT22;20410;55.578;12.968;2023-09-19T02:47:46;18.30;1.00
34135;DHT22;20410;55.578;12.968;2023-09-19T02:50:12;18.30;1.00
34135;DHT22;20410;55.578;12.968;2023-09-19T02:52:41;18.30;1.00
34135;DHT22;20410;55.578;12.968;2023-09-19T02:55:09;18.30;1.00
34135;DHT22;20410;55.578;12.968;2023-09-19T02:57:35;18.30;1.00
34135;DHT22;20410;55.578;12.968;2023-09-19T03:00:02;18.30;1.00
34135;DHT22;20410;55.578;12.968;2023-09-19T03:02:28;18.30;7.10
34135;DHT22;20410;55.578;12.968;2023-09-19T03:04:54;18.30;1.20
34135;DHT22;20410;55.578;12.968;2023-09-19T03:07:21;18.30;22.80
34135;DHT22;20410;55.578;12.968;2023-09-19T03:09:47;18.30;31.70
34135;DHT22;20410;55.578;12.968;2023-09-19T03:12:13;18.20;58.40
34135;DHT22;20410;55.578;12.968;2023-09-19T03:14:41;18.10;66.20
34135;DHT22;20410;55.578;12.968;2023-09-19T03:17:06;18.10;76.20
34135;DHT22;20410;55.578;12.968;2023-09-19T03:19:34;18.10;76.90
34135;DHT22;20410;55.578;12.968;2023-09-19T03:22:00;18.00;87.50
34135;DHT22;20410;55.578;12.968;2023-09-19T03:24:25;18.10;90.80
34135;DHT22;20410;55.578;12.968;2023-09-19T03:26:51;18.10;91.20
34135;DHT22;20410;55.578;12.968;2023-09-19T03:29:17;18.00;87.20
34135;DHT22;20410;55.578;12.968;2023-09-19T03:31:43;18.00;90.40
34135;DHT22;20410;55.578;12.968;2023-09-19T03:34:09;18.00;91.70
34135;DHT22;20410;55.578;12.968;2023-09-19T03:36:35;18.00;77.40
34135;DHT22;20410;55.578;12.968;2023-09-19T03:39:01;18.10;78.00
34135;DHT22;20410;55.578;12.968;2023-09-19T03:41:30;18.00;68.50
34135;DHT22;20410;55.578;12.968;2023-09-19T03:43:56;18.10;72.20
34135;DHT22;20410;55.578;12.968;2023-09-19T03:46:22;18.10;64.40
34135;DHT22;20410;55.578;12.968;2023-09-19T03:48:47;18.10;68.80
34135;DHT22;20410;55.578;12.968;2023-09-19T03:51:13;18.00;52.90
34135;DHT22;20410;55.578;12.968;2023-09-19T03:53:39;18.00;58.10
34135;DHT22;20410;55.578;12.968;2023-09-19T03:56:04;18.00;40.90
34135;DHT22;20410;55.578;12.968;2023-09-19T03:58:30;17.90;36.00
34135;DHT22;20410;55.578;12.968;2023-09-19T04:00:56;17.90;38.60
34135;DHT22;20410;55.578;12.968;2023-09-19T04:03:23;17.90;35.70
34135;DHT22;20410;55.578;12.968;2023-09-19T04:05:49;17.90;33.60
34135;DHT22;20410;55.578;12.968;2023-09-19T04:08:14;17.90;28.80
34135;DHT22;20410;55.578;12.968;2023-09-19T04:10:43;17.90;34.60
34135;DHT22;20410;55.578;12.968;2023-09-19T04:13:10;17.90;33.60
34135;DHT22;20410;55.578;12.968;2023-09-19T04:15:36;17.90;39.60
34135;DHT22;20410;55.578;12.968;2023-09-19T04:18:03;17.90;25.70
34135;DHT22;20410;55.578;12.968;2023-09-19T04:20:29;17.90;23.20
34135;DHT22;20410;55.578;12.968;2023-09-19T04:22:54;17.80;10.00
34135;DHT22;20410;55.578;12.968;2023-09-19T04:25:20;17.70;16.80
34135;DHT22;20410;55.578;12.968;2023-09-19T04:27:46;17.70;21.60
34135;DHT22;20410;55.578;12.968;2023-09-19T04:30:12;17.70;15.40
34135;DHT22;20410;55.578;12.968;2023-09-19T04:32:38;17.80;19.00
34135;DHT22;20410;55.578;12.968;2023-09-19T04:35:08;17.80;21.30
34135;DHT22;20410;55.578;12.968;2023-09-19T04:37:39;17.80;14.90
34135;DHT22;20410;55.578;12.968;2023-09-19T04:40:06;17.70;15.30
34135;DHT22;20410;55.578;12.968;2023-09-19T04:42:35;17.70;15.10
34135;DHT22;20410;55.578;12.968;2023-09-19T04:45:01;17.70;3.70
34135;DHT22;20410;55.578;12.968;2023-09-19T04:47:27;17.70;1.00
34135;DHT22;20410;55.578;12.968;2023-09-19T04:49:52;17.60;4.90
34135;DHT22;20410;55.578;12.968;2023-09-19T04:52:18;17.60;4.60
34135;DHT22;20410;55.578;12.968;2023-09-19T04:54:45;17.60;3.20
34135;DHT22;20410;55.578;12.968;2023-09-19T04:57:13;17.60;13.40
34135;DHT22;20410;55.578;12.968;2023-09-19T04:59:38;17.60;11.60
34135;DHT22;20410;55.578;12.968;2023-09-19T05:02:06;17.60;3.30
34135;DHT22;20410;55.578;12.968;2023-09-19T05:04:31;17.50;1.00
34135;DHT22;20410;55.578;12.968;2023-09-19T05:06:57;17.50;1.00
34135;DHT22;20410;55.578;12.968;2023-09-19T05:09:23;17.50;1.00
34135;DHT22;20410;55.578;12.968;2023-09-19T05:11:49;17.50;1.00
34135;DHT22;20410;55.578;12.968;2023-09-19T05:14:16;17.50;1.00
34135;DHT22;20410;55.578;12.968;2023-09-19T05:16:42;17.50;1.00
34135;DHT22;20410;55.578;12.968;2023-09-19T05:19:08;17.50;1.00
34135;DHT22;20410;55.578;12.968;2023-09-19T05:21:37;17.50;1.00
34135;DHT22;20410;55.578;12.968;2023-09-19T05:24:05;17.40;1.00
34135;DHT22;20410;55.578;12.968;2023-09-19T05:26:32;17.40;1.00
34135;DHT22;20410;55.578;12.968;2023-09-19T05:28:57;17.40;1.00
34135;DHT22;20410;55.578;12.968;2023-09-19T05:31:23;17.30;1.00
34135;DHT22;20410;55.578;12.968;2023-09-19T05:33:50;17.30;1.00
34135;DHT22;20410;55.578;12.968;2023-09-19T05:36:15;17.20;1.00
34135;DHT22;20410;55.578;12.968;2023-09-19T05:38:42;17.20;1.00
34135;DHT22;20410;55.578;12.968;2023-09-19T05:41:08;17.20;1.00
34135;DHT22;20410;55.578;12.968;2023-09-19T05:43:35;17.20;1.00
34135;DHT22;20410;55.578;12.968;2023-09-19T05:46:03;17.20;1.00
34135;DHT22;20410;55.578;12.968;2023-09-19T05:48:29;17.30;1.00
34135;DHT22;20410;55.578;12.968;2023-09-19T05:50:54;17.30;1.00
34135;DHT22;20410;55.578;12.968;2023-09-19T05:53:20;17.40;1.00
34135;DHT22;20410;55.578;12.968;2023-09-19T05:55:45;17.40;1.00
34135;DHT22;20410;55.578;12.968;2023-09-19T05:58:11;17.50;1.00
34135;DHT22;20410;55.578;12.968;2023-09-19T06:00:40;17.50;1.00
34135;DHT22;20410;55.578;12.968;2023-09-19T06:03:08;17.60;1.00
34135;DHT22;20410;55.578;12.968;2023-09-19T06:05:33;17.60;1.00
34135;DHT22;20410;55.578;12.968;2023-09-19T06:07:59;17.60;1.00
34135;DHT22;20410;55.578;12.968;2023-09-19T06:10:26;17.70;1.00
34135;DHT22;20410;55.578;12.968;2023-09-19T06:12:53;17.70;1.00
34135;DHT22;20410;55.578;12.968;2023-09-19T06:15:20;17.50;1.00
34135;DHT22;20410;55.578;12.968;2023-09-19T06:17:49;17.40;1.00
34135;DHT22;20410;55.578;12.968;2023-09-19T06:20:15;17.20;1.00
34135;DHT22;20410;55.578;12.968;2023-09-19T06:22:43;17.10;1.00
34135;DHT22;20410;55.578;12.968;2023-09-19T06:25:13;17.00;1.00
34135;DHT22;20410;55.578;12.968;2023-09-19T06:27:48;16.90;1.00
34135;DHT22;20410;55.578;12.968;2023-09-19T06:30:14;16.90;15.30
34135;DHT22;20410;55.578;12.968;2023-09-19T06:32:41;16.80;11.20
34135;DHT22;20410;55.578;12.968;2023-09-19T06:35:10;16.80;4.90
34135;DHT22;20410;55.578;12.968;2023-09-19T06:37:37;16.70;1.00
34135;DHT22;20410;55.578;12.968;2023-09-19T06:40:07;16.60;1.00
34135;DHT22;20410;55.578;12.968;2023-09-19T06:42:34;16.60;1.00
34135;DHT22;20410;55.578;12.968;2023-09-19T06:45:00;16.50;1.00
34135;DHT22;20410;55.578;12.968;2023-09-19T06:47:26;16.50;1.00
34135;DHT22;20410;55.578;12.968;2023-09-19T06:49:51;16.50;1.00
34135;DHT22;20410;55.578;12.968;2023-09-19T06:52:17;16.50;1.00
34135;DHT22;20410;55.578;12.968;2023-09-19T06:54:47;16.60;1.00
34135;DHT22;20410;55.578;12.968;2023-09-19T06:57:16;16.60;1.00
34135;DHT22;20410;55.578;12.968;2023-09-19T06:59:41;16.60;1.00
34135;DHT22;20410;55.578;12.968;2023-09-19T07:02:07;16.70;1.00
34135;DHT22;20410;55.578;12.968;2023-09-19T07:04:33;16.80;1.00
34135;DHT22;20410;55.578;12.968;2023-09-19T07:06:59;16.80;1.00
34135;DHT22;20410;55.578;12.968;2023-09-19T07:09:25;16.90;1.00
34135;DHT22;20410;55.578;12.968;2023-09-19T07:11:53;17.00;1.00
34135;DHT22;20410;55.578;12.968;2023-09-19T07:14:18;17.00;1.00
34135;DHT22;20410;55.578;12.968;2023-09-19T07:16:44;17.00;1.00
34135;DHT22;20410;55.578;12.968;2023-09-19T07:19:10;17.20;1.00
34135;DHT22;20410;55.578;12.968;2023-09-19T07:21:36;17.30;1.00
34135;DHT22;20410;55.578;12.968;2023-09-19T07:24:04;17.50;1.00
34135;DHT22;20410;55.578;12.968;2023-09-19T07:26:30;17.60;1.00
34135;DHT22;20410;55.578;12.968;2023-09-19T07:28:56;17.70;1.00
34135;DHT22;20410;55.578;12.968;2023-09-19T07:31:23;17.80;1.00
34135;DHT22;20410;55.578;12.968;2023-09-19T07:33:49;17.90;1.00
34135;DHT22;20410;55.578;12.968;2023-09-19T07:36:14;17.90;1.00
34135;DHT22;20410;55.578;12.968;2023-09-19T07:38:41;17.90;1.00
34135;DHT22;20410;55.578;12.968;2023-09-19T07:41:08;17.90;1.00
34135;DHT22;20410;55.578;12.968;2023-09-19T07:43:37;17.70;1.00
34135;DHT22;20410;55.578;12.968;2023-09-19T07:46:06;17.60;1.00
34135;DHT22;20410;55.578;12.968;2023-09-19T07:48:33;17.40;1.00
34135;DHT22;20410;55.578;12.968;2023-09-19T07:51:03;17.40;1.00
34135;DHT22;20410;55.578;12.968;2023-09-19T07:53:29;17.50;1.00
34135;DHT22;20410;55.578;12.968;2023-09-19T07:56:02;17.60;1.00
34135;DHT22;20410;55.578;12.968;2023-09-19T07:58:29;17.80;1.00
34135;DHT22;20410;55.578;12.968;2023-09-19T08:00:54;18.00;1.00
34135;DHT22;20410;55.578;12.968;2023-09-19T08:03:20;18.10;1.00
34135;DHT22;20410;55.578;12.968;2023-09-19T08:05:45;18.30;1.00
34135;DHT22;20410;55.578;12.968;2023-09-19T08:08:11;18.40;1.00
34135;DHT22;20410;55.578;12.968;2023-09-19T08:10:40;18.60;1.00
34135;DHT22;20410;55.578;12.968;2023-09-19T08:13:07;18.60;1.00
34135;DHT22;20410;55.578;12.968;2023-09-19T08:15:43;18.60;1.00
34135;DHT22;20410;55.578;12.968;2023-09-19T08:18:09;18.70;1.00
34135;DHT22;20410;55.578;12.968;2023-09-19T08:20:38;18.70;1.00
34135;DHT22;20410;55.578;12.968;2023-09-19T08:23:03;18.70;1.00
34135;DHT22;20410;55.578;12.968;2023-09-19T08:25:29;18.80;1.00
34135;DHT22;20410;55.578;12.968;2023-09-19T08:27:55;18.90;1.00
34135;DHT22;20410;55.578;12.968;2023-09-19T08:30:24;19.00;1.00
34135;DHT22;20410;55.578;12.968;2023-09-19T08:33:10;19.20;1.00
34135;DHT22;20410;55.578;12.968;2023-09-19T08:35:35;19.20;1.00
34135;DHT22;20410;55.578;12.968;2023-09-19T08:38:03;19.00;1.00
34135;DHT22;20410;55.578;12.968;2023-09-19T08:40:32;19.10;1.00
34135;DHT22;20410;55.578;12.968;2023-09-19T08:43:01;19.10;1.00
34135;DHT22;20410;55.578;12.968;2023-09-19T08:45:27;19.30;1.00
34135;DHT22;20410;55.578;12.968;2023-09-19T08:48:27;19.30;1.00
34135;DHT22;20410;55.578;12.968;2023-09-19T08:51:04;19.20;1.00
34135;DHT22;20410;55.578;12.968;2023-09-19T08:56:10;17.40;1.00
34135;DHT22;20410;55.578;12.968;2023-09-19T08:58:59;16.80;1.00
34135;DHT22;20410;55.578;12.968;2023-09-19T09:01:28;16.40;1.00
34135;DHT22;20410;55.578;12.968;2023-09-19T09:03:55;16.20;14.60
34135;DHT22;20410;55.578;12.968;2023-09-19T09:06:22;16.30;51.70
34135;DHT22;20410;55.578;12.968;2023-09-19T09:08:50;16.30;31.20
34135;DHT22;20410;55.578;12.968;2023-09-19T09:11:16;16.30;1.00
34135;DHT22;20410;55.578;12.968;2023-09-19T09:13:43;16.40;19.20
34135;DHT22;20410;55.578;12.968;2023-09-19T09:16:10;16.50;4.40
34135;DHT22;20410;55.578;12.968;2023-09-19T09:18:36;16.60;57.50
34135;DHT22;20410;55.578;12.968;2023-09-19T09:21:02;16.60;4.70
34135;DHT22;20410;55.578;12.968;2023-09-19T09:23:30;16.60;1.00
34135;DHT22;20410;55.578;12.968;2023-09-19T09:25:58;16.80;1.00
34135;DHT22;20410;55.578;12.968;2023-09-19T09:28:27;16.90;1.00
34135;DHT22;20410;55.578;12.968;2023-09-19T09:30:57;16.90;1.00
34135;DHT22;20410;55.578;12.968;2023-09-19T09:33:34;17.00;1.00
34135;DHT22;20410;55.578;12.968;2023-09-19T09:36:00;16.90;1.00
34135;DHT22;20410;55.578;12.968;2023-09-19T09:38:29;16.90;1.00
34135;DHT22;20410;55.578;12.968;2023-09-19T09:40:59;17.00;1.00
34135;DHT22;20410;55.578;12.968;2023-09-19T09:43:38;17.00;1.00
34135;DHT22;20410;55.578;12.968;2023-09-19T09:46:18;17.10;1.00
34135;DHT22;20410;55.578;12.968;2023-09-19T09:48:47;17.20;1.00
34135;DHT22;20410;55.578;12.968;2023-09-19T09:51:30;17.20;1.00
34135;DHT22;20410;55.578;12.968;2023-09-19T09:54:17;17.30;1.00
34135;DHT22;20410;55.578;12.968;2023-09-19T09:59:22;17.30;1.00
34135;DHT22;20410;55.578;12.968;2023-09-19T10:01:49;17.40;1.00
34135;DHT22;20410;55.578;12.968;2023-09-19T10:04:27;17.50;1.00
34135;DHT22;20410;55.578;12.968;2023-09-19T10:07:02;17.70;1.00
34135;DHT22;20410;55.578;12.968;2023-09-19T10:09:45;17.70;1.00
34135;DHT22;20410;55.578;12.968;2023-09-19T10:12:12;17.70;1.00
34135;DHT22;20410;55.578;12.968;2023-09-19T10:14:41;17.80;1.00
34135;DHT22;20410;55.578;12.968;2023-09-19T10:17:10;17.80;1.00
34135;DHT22;20410;55.578;12.968;2023-09-19T10:19:39;17.70;1.00
34135;DHT22;20410;55.578;12.968;2023-09-19T10:22:10;17.80;1.00
34135;DHT22;20410;55.578;12.968;2023-09-19T10:24:38;17.80;1.00
34135;DHT22;20410;55.578;12.968;2023-09-19T10:27:06;17.90;1.00
34135;DHT22;20410;55.578;12.968;2023-09-19T10:29:36;17.90;1.00
34135;DHT22;20410;55.578;12.968;2023-09-19T10:32:06;17.90;1.00
34135;DHT22;20410;55.578;12.968;2023-09-19T10:34:35;17.80;1.00
34135;DHT22;20410;55.578;12.968;2023-09-19T10:37:02;17.90;1.00
34135;DHT22;20410;55.578;12.968;2023-09-19T10:39:32;18.10;1.00
34135;DHT22;20410;55.578;12.968;2023-09-19T10:42:02;18.30;1.00
34135;DHT22;20410;55.578;12.968;2023-09-19T10:44:32;18.60;1.00
34135;DHT22;20410;55.578;12.968;2023-09-19T10:46:58;18.80;1.00
34135;DHT22;20410;55.578;12.968;2023-09-19T10:49:24;19.00;1.00
34135;DHT22;20410;55.578;12.968;2023-09-19T10:51:54;19.20;1.00
34135;DHT22;20410;55.578;12.968;2023-09-19T10:54:26;19.30;1.00
34135;DHT22;20410;55.578;12.968;2023-09-19T10:56:54;19.40;1.00
34135;DHT22;20410;55.578;12.968;2023-09-19T10:59:21;19.20;1.00
34135;DHT22;20410;55.578;12.968;2023-09-19T11:01:52;19.00;1.00
34135;DHT22;20410;55.578;12.968;2023-09-19T11:04:35;18.90;1.00
34135;DHT22;20410;55.578;12.968;2023-09-19T11:07:13;18.90;1.00
34135;DHT22;20410;55.578;12.968;2023-09-19T11:09:44;19.00;1.00
34135;DHT22;20410;55.578;12.968;2023-09-19T11:15:02;19.40;1.00
34135;DHT22;20410;55.578;12.968;2023-09-19T11:30:45;20.40;1.00
34135;DHT22;20410;55.578;12.968;2023-09-19T11:36:12;20.40;1.00
34135;DHT22;20410;55.578;12.968;2023-09-19T11:46:32;20.00;1.00
34135;DHT22;20410;55.578;12.968;2023-09-19T11:49:08;20.10;1.00
34135;DHT22;20410;55.578;12.968;2023-09-19T11:51:40;20.20;1.00
34135;DHT22;20410;55.578;12.968;2023-09-19T11:54:10;20.30;1.00
34135;DHT22;20410;55.578;12.968;2023-09-19T11:56:43;20.20;1.00
34135;DHT22;20410;55.578;12.968;2023-09-19T11:59:11;20.10;1.00
34135;DHT22;20410;55.578;12.968;2023-09-19T12:01:38;19.90;1.00
34135;DHT22;20410;55.578;12.968;2023-09-19T12:04:11;19.70;1.00
34135;DHT22;20410;55.578;12.968;2023-09-19T12:06:37;19.50;1.00
34135;DHT22;20410;55.578;12.968;2023-09-19T12:09:13;19.30;1.00
34135;DHT22;20410;55.578;12.968;2023-09-19T12:11:43;19.10;1.00
34135;DHT22;20410;55.578;12.968;2023-09-19T12:14:11;19.20;1.00
34135;DHT22;20410;55.578;12.968;2023-09-19T12:16:53;19.20;1.00
34135;DHT22;20410;55.578;12.968;2023-09-19T12:19:21;19.20;1.00
34135;DHT22;20410;55.578;12.968;2023-09-19T12:22:01;19.20;1.00
34135;DHT22;20410;55.578;12.968;2023-09-19T12:24:30;19.10;1.00
34135;DHT22;20410;55.578;12.968;2023-09-19T12:27:06;19.10;1.00
34135;DHT22;20410;55.578;12.968;2023-09-19T12:29:42;19.20;1.00
34135;DHT22;20410;55.578;12.968;2023-09-19T12:32:08;19.20;1.00
34135;DHT22;20410;55.578;12.968;2023-09-19T12:34:34;19.20;1.00
34135;DHT22;20410;55.578;12.968;2023-09-19T12:39:39;19.30;1.00
34135;DHT22;20410;55.578;12.968;2023-09-19T12:42:08;19.30;1.00
34135;DHT22;20410;55.578;12.968;2023-09-19T12:44:38;19.30;1.00
34135;DHT22;20410;55.578;12.968;2023-09-19T12:47:15;19.20;1.00
34135;DHT22;20410;55.578;12.968;2023-09-19T12:50:11;19.10;1.00
34135;DHT22;20410;55.578;12.968;2023-09-19T12:52:49;19.10;1.00
34135;DHT22;20410;55.578;12.968;2023-09-19T12:55:26;19.10;1.00
34135;DHT22;20410;55.578;12.968;2023-09-19T12:58:14;19.00;1.00
34135;DHT22;20410;55.578;12.968;2023-09-19T13:00:45;19.00;1.00
34135;DHT22;20410;55.578;12.968;2023-09-19T13:05:55;18.90;1.00
34135;DHT22;20410;55.578;12.968;2023-09-19T13:08:25;18.80;1.00
34135;DHT22;20410;55.578;12.968;2023-09-19T13:11:05;18.70;1.00
34135;DHT22;20410;55.578;12.968;2023-09-19T13:13:41;18.70;1.00
34135;DHT22;20410;55.578;12.968;2023-09-19T13:16:09;18.80;1.00
34135;DHT22;20410;55.578;12.968;2023-09-19T13:18:45;18.70;1.00
34135;DHT22;20410;55.578;12.968;2023-09-19T13:21:13;18.70;1.00
34135;DHT22;20410;55.578;12.968;2023-09-19T13:23:52;18.60;1.00
34135;DHT22;20410;55.578;12.968;2023-09-19T13:26:18;18.60;1.00
34135;DHT22;20410;55.578;12.968;2023-09-19T13:28:44;18.50;1.00
34135;DHT22;20410;55.578;12.968;2023-09-19T13:31:10;18.50;1.00
34135;DHT22;20410;55.578;12.968;2023-09-19T13:33:48;18.50;1.00
34135;DHT22;20410;55.578;12.968;2023-09-19T13:36:15;18.40;1.00
34135;DHT22;20410;55.578;12.968;2023-09-19T13:38:41;18.40;1.00
34135;DHT22;20410;55.578;12.968;2023-09-19T13:41:10;18.20;1.00
34135;DHT22;20410;55.578;12.968;2023-09-19T13:43:37;18.30;1.00
34135;DHT22;20410;55.578;12.968;2023-09-19T13:46:04;18.30;1.00
34135;DHT22;20410;55.578;12.968;2023-09-19T13:48:30;18.30;1.00
34135;DHT22;20410;55.578;12.968;2023-09-19T13:50:56;18.30;1.00
34135;DHT22;20410;55.578;12.968;2023-09-19T13:53:22;18.30;1.00
34135;DHT22;20410;55.578;12.968;2023-09-19T13:55:48;18.40;1.00
34135;DHT22;20410;55.578;12.968;2023-09-19T13:58:14;18.40;1.00
34135;DHT22;20410;55.578;12.968;2023-09-19T14:00:40;18.40;1.00
34135;DHT22;20410;55.578;12.968;2023-09-19T14:03:06;18.40;1.00
34135;DHT22;20410;55.578;12.968;2023-09-19T14:05:32;18.40;1.00
34135;DHT22;20410;55.578;12.968;2023-09-19T14:07:58;18.30;1.00
34135;DHT22;20410;55.578;12.968;2023-09-19T14:10:25;18.20;1.00
34135;DHT22;20410;55.578;12.968;2023-09-19T14:12:52;18.10;1.00
34135;DHT22;20410;55.578;12.968;2023-09-19T14:15:18;18.10;1.00
34135;DHT22;20410;55.578;12.968;2023-09-19T14:17:43;18.10;1.00
34135;DHT22;20410;55.578;12.968;2023-09-19T14:20:12;18.20;1.00
34135;DHT22;20410;55.578;12.968;2023-09-19T14:22:38;18.30;1.00
34135;DHT22;20410;55.578;12.968;2023-09-19T14:25:04;18.40;1.00
34135;DHT22;20410;55.578;12.968;2023-09-19T14:27:30;18.50;1.00
34135;DHT22;20410;55.578;12.968;2023-09-19T14:29:56;18.50;1.00
34135;DHT22;20410;55.578;12.968;2023-09-19T14:32:23;18.40;1.00
34135;DHT22;20410;55.578;12.968;2023-09-19T14:34:49;18.40;1.00
34135;DHT22;20410;55.578;12.968;2023-09-19T14:37:15;18.40;1.00
34135;DHT22;20410;55.578;12.968;2023-09-19T14:39:43;18.40;1.00
34135;DHT22;20410;55.578;12.968;2023-09-19T14:42:11;18.30;1.00
34135;DHT22;20410;55.578;12.968;2023-09-19T14:44:40;18.30;1.00
34135;DHT22;20410;55.578;12.968;2023-09-19T14:47:05;18.20;1.00
34135;DHT22;20410;55.578;12.968;2023-09-19T14:49:36;18.20;1.00
34135;DHT22;20410;55.578;12.968;2023-09-19T14:52:07;18.30;1.00
34135;DHT22;20410;55.578;12.968;2023-09-19T14:54:33;18.30;1.00
34135;DHT22;20410;55.578;12.968;2023-09-19T14:56:59;18.20;1.00
34135;DHT22;20410;55.578;12.968;2023-09-19T14:59:34;18.20;1.00
34135;DHT22;20410;55.578;12.968;2023-09-19T15:02:06;18.30;1.00
34135;DHT22;20410;55.578;12.968;2023-09-19T15:04:32;18.20;1.00
34135;DHT22;20410;55.578;12.968;2023-09-19T15:06:59;18.20;1.00
34135;DHT22;20410;55.578;12.968;2023-09-19T15:09:25;18.30;1.00
34135;DHT22;20410;55.578;12.968;2023-09-19T15:11:55;18.30;1.00
34135;DHT22;20410;55.578;12.968;2023-09-19T15:14:24;18.30;1.00
34135;DHT22;20410;55.578;12.968;2023-09-19T15:16:50;18.40;1.00
34135;DHT22;20410;55.578;12.968;2023-09-19T15:19:16;18.40;1.00
34135;DHT22;20410;55.578;12.968;2023-09-19T15:21:43;18.50;1.00
34135;DHT22;20410;55.578;12.968;2023-09-19T15:24:09;18.50;1.00
34135;DHT22;20410;55.578;12.968;2023-09-19T15:26:38;18.50;1.00
34135;DHT22;20410;55.578;12.968;2023-09-19T15:29:09;18.60;1.00
34135;DHT22;20410;55.578;12.968;2023-09-19T15:31:36;18.60;1.00
34135;DHT22;20410;55.578;12.968;2023-09-19T15:34:05;18.60;1.00
34135;DHT22;20410;55.578;12.968;2023-09-19T15:36:32;18.70;1.00
34135;DHT22;20410;55.578;12.968;2023-09-19T15:39:04;18.70;1.00
34135;DHT22;20410;55.578;12.968;2023-09-19T15:41:36;18.70;1.00
34135;DHT22;20410;55.578;12.968;2023-09-19T15:44:10;18.70;1.00
34135;DHT22;20410;55.578;12.968;2023-09-19T15:46:36;18.60;1.00
34135;DHT22;20410;55.578;12.968;2023-09-19T15:49:03;18.50;1.00
34135;DHT22;20410;55.578;12.968;2023-09-19T15:51:29;18.40;1.00
34135;DHT22;20410;55.578;12.968;2023-09-19T15:53:55;18.40;1.00
34135;DHT22;20410;55.578;12.968;2023-09-19T15:56:22;18.30;1.00
34135;DHT22;20410;55.578;12.968;2023-09-19T15:58:53;18.30;1.00
34135;DHT22;20410;55.578;12.968;2023-09-19T16:01:19;18.30;1.00
34135;DHT22;20410;55.578;12.968;2023-09-19T16:03:50;18.20;1.00
34135;DHT22;20410;55.578;12.968;2023-09-19T16:06:19;18.10;1.00
34135;DHT22;20410;55.578;12.968;2023-09-19T16:08:47;18.00;1.00
34135;DHT22;20410;55.578;12.968;2023-09-19T16:11:13;17.90;1.00
34135;DHT22;20410;55.578;12.968;2023-09-19T16:13:41;17.90;1.00
34135;DHT22;20410;55.578;12.968;2023-09-19T16:16:10;17.80;1.00
34135;DHT22;20410;55.578;12.968;2023-09-19T16:18:40;17.80;1.00
34135;DHT22;20410;55.578;12.968;2023-09-19T16:21:08;17.80;1.00
34135;DHT22;20410;55.578;12.968;2023-09-19T16:23:34;17.80;1.00
34135;DHT22;20410;55.578;12.968;2023-09-19T16:26:07;17.80;1.00
34135;DHT22;20410;55.578;12.968;2023-09-19T16:28:35;17.90;1.00
34135;DHT22;20410;55.578;12.968;2023-09-19T16:31:06;17.90;1.00
34135;DHT22;20410;55.578;12.968;2023-09-19T16:33:33;17.90;1.00
34135;DHT22;20410;55.578;12.968;2023-09-19T16:36:00;18.00;1.00